Time;durP1;ratioP1;P1;durP2;ratioP2;P2;SDS_P1;SDS_P2;PMS_P1;PMS_P2;Temp;Humidity;BMP_temperature;BMP_pressure;BME280_temperature;BME280_humidity;BME280_pressure;Samples;Min_cycle;Max_cycle;Signal;HPM_P1;HPM_P2
2022/12/21 00:01:44;;;;;;;45.60;31.42;;;11.20;99.90;;;;;;5052934;28;20095;-83
2022/12/21 00:04:10;;;;;;;47.53;33.60;;;11.20;99.90;;;;;;5053390;28;20083;-82
2022/12/21 00:06:38;;;;;;;44.65;31.75;;;11.20;99.90;;;;;;5013318;28;1148347;-83
2022/12/21 00:09:06;;;;;;;51.90;34.10;;;11.20;99.90;;;;;;5036139;28;20056;-83
2022/12/21 00:11:33;;;;;;;52.65;34.90;;;11.20;99.90;;;;;;5054245;28;20037;-81
2022/12/21 00:14:01;;;;;;;48.60;33.17;;;11.20;99.90;;;;;;5054113;28;20099;-82
2022/12/21 00:16:29;;;;;;;53.03;34.10;;;11.20;99.90;;;;;;5052682;28;20033;-82
2022/12/21 00:18:56;;;;;;;48.78;33.13;;;11.10;99.90;;;;;;5053971;28;20029;-81
2022/12/21 00:21:24;;;;;;;54.63;34.50;;;11.10;99.90;;;;;;5052144;28;20031;-82
2022/12/21 00:23:52;;;;;;;50.33;33.00;;;11.10;99.90;;;;;;5054081;28;20032;-82
2022/12/21 00:26:20;;;;;;;49.10;32.38;;;11.10;99.90;;;;;;5053731;28;20060;-81
2022/12/21 00:28:47;;;;;;;49.85;31.95;;;11.10;99.90;;;;;;5052811;28;20036;-81
2022/12/21 00:31:18;;;;;;;50.83;31.88;;;11.10;99.90;;;;;;5053266;28;20469;-81
2022/12/21 00:33:45;;;;;;;55.22;33.95;;;11.10;99.90;;;;;;5053809;28;20029;-81
2022/12/21 00:36:13;;;;;;;50.22;33.17;;;11.10;99.90;;;;;;5053717;28;20068;-81
2022/12/21 00:38:39;;;;;;;50.38;31.73;;;11.10;99.90;;;;;;5052424;28;20536;-81
2022/12/21 00:41:07;;;;;;;47.25;30.65;;;11.10;99.90;;;;;;5053727;28;20457;-81
2022/12/21 00:43:36;;;;;;;45.90;31.50;;;11.20;99.90;;;;;;5052561;28;20083;-81
2022/12/21 00:46:03;;;;;;;51.28;32.17;;;11.20;99.90;;;;;;5052079;28;20424;-81
2022/12/21 00:48:30;;;;;;;53.30;33.03;;;11.20;99.90;;;;;;5051898;28;20029;-81
2022/12/21 00:51:14;;;;;;;51.25;32.65;;;11.20;99.90;;;;;;5052945;28;20178;-81
2022/12/21 00:53:40;;;;;;;51.05;33.35;;;11.20;99.90;;;;;;5052239;28;20029;-82
2022/12/21 00:56:07;;;;;;;48.97;32.05;;;11.20;99.90;;;;;;5052416;28;20044;-82
2022/12/21 00:58:34;;;;;;;42.17;29.38;;;11.20;99.90;;;;;;5052977;28;20065;-82
2022/12/21 01:01:05;;;;;;;62.17;30.90;;;11.30;99.90;;;;;;5035524;28;20182;-83
2022/12/21 01:03:30;;;;;;;51.08;32.05;;;11.30;99.90;;;;;;5053363;28;20028;-82
2022/12/21 01:05:56;;;;;;;55.85;32.00;;;11.20;99.90;;;;;;5052235;28;20032;-83
2022/12/21 01:08:24;;;;;;;49.95;32.78;;;11.20;99.90;;;;;;5053321;28;20485;-82
2022/12/21 01:10:56;;;;;;;58.47;34.38;;;11.20;99.90;;;;;;5053371;28;20091;-83
2022/12/21 01:13:22;;;;;;;56.63;34.67;;;11.20;99.90;;;;;;5053471;28;20086;-82
2022/12/21 01:15:48;;;;;;;56.90;35.25;;;11.20;99.90;;;;;;5023227;28;20036;-82
2022/12/21 01:18:15;;;;;;;60.88;35.78;;;11.20;99.90;;;;;;5056009;28;20403;-83
2022/12/21 01:20:46;;;;;;;60.00;35.95;;;11.20;99.90;;;;;;5055220;28;20032;-83
2022/12/21 01:23:12;;;;;;;54.53;34.38;;;11.20;99.90;;;;;;5057054;28;20021;-82
2022/12/21 01:25:38;;;;;;;58.58;35.47;;;11.10;99.90;;;;;;5056032;28;20535;-82
2022/12/21 01:28:04;;;;;;;62.63;34.30;;;11.10;99.90;;;;;;5055897;28;20037;-82
2022/12/21 01:30:30;;;;;;;60.33;33.78;;;11.10;99.90;;;;;;5055694;28;20086;-80
2022/12/21 01:32:56;;;;;;;59.80;34.20;;;11.10;99.90;;;;;;5055864;28;20035;-80
2022/12/21 01:35:22;;;;;;;62.40;37.05;;;11.10;99.90;;;;;;5055656;28;20450;-80
2022/12/21 01:37:47;;;;;;;63.10;35.83;;;11.10;99.90;;;;;;5055884;28;20127;-81
2022/12/21 01:40:13;;;;;;;66.65;36.80;;;11.10;99.90;;;;;;5055745;28;20445;-76
2022/12/21 01:42:39;;;;;;;66.20;36.25;;;11.10;99.90;;;;;;5057322;28;20098;-76
2022/12/21 01:45:29;;;;;;;56.65;33.97;;;11.10;99.90;;;;;;5038922;28;20025;-77
2022/12/21 01:47:59;;;;;;;63.33;36.17;;;11.10;99.90;;;;;;5055692;28;20065;-77
2022/12/21 01:50:31;;;;;;;63.17;36.72;;;11.10;99.90;;;;;;5039387;28;20045;-76
2022/12/21 01:53:01;;;;;;;64.30;36.88;;;11.10;99.90;;;;;;5056911;28;20466;-76
2022/12/21 01:55:29;;;;;;;59.47;35.00;;;11.10;99.90;;;;;;5056451;28;20078;-76
2022/12/21 01:57:55;;;;;;;63.75;37.38;;;11.10;99.90;;;;;;5056655;28;20381;-77
2022/12/21 02:00:21;;;;;;;63.08;36.67;;;11.10;99.90;;;;;;5055278;28;20057;-77
2022/12/21 02:02:53;;;;;;;56.10;34.30;;;11.10;99.90;;;;;;5056943;28;20032;-76
2022/12/21 02:05:33;;;;;;;62.90;35.72;;;11.10;99.90;;;;;;5056646;28;20489;-76
2022/12/21 02:08:01;;;;;;;63.58;35.40;;;11.10;99.90;;;;;;5056864;28;20052;-76
2022/12/21 02:10:27;;;;;;;67.45;36.33;;;11.10;99.90;;;;;;5056780;28;20085;-76
2022/12/21 02:13:00;;;;;;;56.17;33.38;;;11.10;99.90;;;;;;5056801;28;20029;-74
2022/12/21 02:15:43;;;;;;;59.53;35.38;;;11.00;99.90;;;;;;5056456;28;20021;-74
2022/12/21 02:18:34;;;;;;;59.20;33.75;;;11.10;99.90;;;;;;5056505;28;20025;-74
2022/12/21 02:21:27;;;;;;;52.97;32.58;;;11.10;99.90;;;;;;5056382;28;20060;-74
2022/12/21 02:24:14;;;;;;;56.75;33.08;;;11.10;99.90;;;;;;5056019;28;20017;-74
2022/12/21 02:26:49;;;;;;;58.08;34.75;;;11.10;99.90;;;;;;5054782;28;20492;-74
2022/12/21 02:29:33;;;;;;;58.65;33.45;;;11.10;99.90;;;;;;5056190;28;20469;-73
2022/12/21 02:32:11;;;;;;;133.70;33.67;;;11.10;99.90;;;;;;5055301;28;20457;-74
2022/12/21 02:35:01;;;;;;;60.13;32.72;;;11.10;99.90;;;;;;5055804;28;20029;-73
2022/12/21 02:37:34;;;;;;;52.47;32.75;;;11.10;99.90;;;;;;5054692;28;20087;-74
2022/12/21 02:40:23;;;;;;;53.10;31.88;;;11.10;99.90;;;;;;5056270;28;20521;-73
2022/12/21 02:45:49;;;;;;;57.38;33.13;;;11.10;99.90;;;;;;5055829;28;20056;-73
2022/12/21 02:48:23;;;;;;;56.17;32.47;;;11.00;99.90;;;;;;5055824;28;20025;-74
2022/12/21 02:50:55;;;;;;;53.88;31.85;;;11.00;99.90;;;;;;5055750;28;20082;-74
2022/12/21 02:53:28;;;;;;;59.85;32.72;;;11.00;99.90;;;;;;5054550;28;20025;-74
2022/12/21 02:55:53;;;;;;;;;;;11.00;99.90;;;;;;5056119;28;20052;-72
2022/12/21 02:58:22;;;;;;;50.78;29.13;;;11.00;99.90;;;;;;5056242;28;19947;-72
2022/12/21 03:00:50;;;;;;;47.85;29.33;;;11.00;99.90;;;;;;5055749;28;20056;-72
2022/12/21 03:06:15;;;;;;;77.00;30.45;;;11.00;99.90;;;;;;5055575;28;20052;-72
2022/12/21 03:09:08;;;;;;;50.65;30.40;;;11.00;99.90;;;;;;5055767;28;20037;-72
2022/12/21 03:11:39;;;;;;;;;;;11.00;99.90;;;;;;5055783;28;20029;-72
2022/12/21 03:14:11;;;;;;;49.92;29.25;;;11.00;99.90;;;;;;5055091;28;19999;-72
2022/12/21 03:16:48;;;;;;;48.70;29.13;;;11.00;99.90;;;;;;5055602;28;20071;-72
2022/12/21 03:19:35;;;;;;;66.43;30.98;;;11.00;99.90;;;;;;5055491;28;20107;-72
2022/12/21 03:22:09;;;;;;;48.38;28.90;;;11.00;99.90;;;;;;5054503;28;20480;-72
2022/12/21 03:24:56;;;;;;;54.13;31.30;;;11.00;99.90;;;;;;5053597;28;20025;-72
2022/12/21 03:27:30;;;;;;;51.45;28.95;;;11.10;99.90;;;;;;5055158;28;20104;-72
2022/12/21 03:30:09;;;;;;;48.47;29.73;;;11.10;99.90;;;;;;5055130;28;20579;-72
2022/12/21 03:32:42;;;;;;;53.95;31.60;;;11.10;99.90;;;;;;5054983;28;20037;-72
2022/12/21 03:35:14;;;;;;;;;;;11.10;99.90;;;;;;5054021;28;20025;-72
2022/12/21 03:37:42;;;;;;;54.25;31.23;;;11.10;99.90;;;;;;5054381;28;19913;-72
2022/12/21 03:40:19;;;;;;;49.35;29.75;;;11.10;99.90;;;;;;5054083;28;20025;-72
2022/12/21 03:42:51;;;;;;;60.25;34.03;;;11.10;99.90;;;;;;5054444;28;20029;-72
2022/12/21 03:45:23;;;;;;;57.58;34.55;;;11.10;99.90;;;;;;5054122;28;20029;-72
2022/12/21 03:47:53;;;;;;;49.58;30.75;;;11.10;99.90;;;;;;5054992;28;20029;-72
2022/12/21 03:50:30;;;;;;;50.50;30.65;;;11.10;99.90;;;;;;5054598;28;20112;-71
2022/12/21 03:53:10;;;;;;;49.50;29.75;;;11.10;99.90;;;;;;5054636;28;20025;-72
2022/12/21 03:55:38;;;;;;;55.13;31.30;;;11.10;99.90;;;;;;5054477;28;20123;-71
2022/12/21 03:58:05;;;;;;;45.10;28.58;;;11.10;99.90;;;;;;5054470;28;20033;-72
2022/12/21 04:00:46;;;;;;;54.42;29.85;;;11.10;99.90;;;;;;5054715;28;20025;-72
2022/12/21 04:03:21;;;;;;;47.92;30.17;;;11.10;99.90;;;;;;5054451;28;20055;-74
2022/12/21 04:05:58;;;;;;;53.78;30.65;;;11.10;99.90;;;;;;5054300;28;20025;-74
2022/12/21 04:08:26;;;;;;;55.53;32.25;;;11.10;99.90;;;;;;5053850;28;20059;-74
2022/12/21 04:10:52;;;;;;;71.80;31.98;;;11.10;99.90;;;;;;5053038;28;20044;-75
2022/12/21 04:13:17;;;;;;;60.25;33.33;;;11.00;99.90;;;;;;5054187;28;20029;-75
2022/12/21 04:21:11;;;;;;;47.88;29.33;;;11.00;99.90;;;;;;5053829;28;20055;-75
2022/12/21 04:29:05;;;;;;;55.60;31.52;;;11.00;99.90;;;;;;5054224;28;20488;-72
2022/12/21 04:31:30;;;;;;;56.60;33.13;;;11.00;99.90;;;;;;5053215;28;20029;-72
2022/12/21 04:33:56;;;;;;;55.00;32.17;;;11.00;99.90;;;;;;5053527;28;20036;-74
2022/12/21 04:39:05;;;;;;;57.25;32.60;;;10.80;99.90;;;;;;5053059;28;20542;-74
2022/12/21 04:41:31;;;;;;;53.42;32.20;;;10.80;99.90;;;;;;5053478;28;20037;-74
2022/12/21 04:43:58;;;;;;;55.47;32.47;;;10.80;99.90;;;;;;5052505;28;20029;-75
2022/12/21 04:46:23;;;;;;;58.75;33.92;;;10.70;99.90;;;;;;5053940;28;20063;-75
2022/12/21 04:48:49;;;;;;;54.63;32.40;;;10.70;99.90;;;;;;5052946;28;20025;-75
2022/12/21 04:51:17;;;;;;;64.07;33.88;;;10.70;99.90;;;;;;5053554;28;20108;-74
2022/12/21 04:53:43;;;;;;;58.80;33.25;;;10.80;99.90;;;;;;5052563;28;20029;-75
2022/12/21 04:56:09;;;;;;;54.55;33.50;;;10.70;99.90;;;;;;5052951;28;20033;-75
2022/12/21 04:58:35;;;;;;;58.75;33.38;;;10.70;99.90;;;;;;5052254;28;20033;-75
2022/12/21 05:01:02;;;;;;;58.60;33.60;;;10.70;99.90;;;;;;5053030;28;20461;-74
2022/12/21 05:03:28;;;;;;;53.95;32.20;;;10.70;99.90;;;;;;5052568;28;20029;-74
2022/12/21 05:05:53;;;;;;;51.25;29.80;;;10.60;99.90;;;;;;5053198;28;20059;-74
2022/12/21 05:08:19;;;;;;;51.72;30.83;;;10.60;99.90;;;;;;5053557;28;20420;-75
2022/12/21 05:10:45;;;;;;;114.57;32.63;;;10.70;99.90;;;;;;5053432;28;20028;-74
2022/12/21 05:13:10;;;;;;;58.92;30.60;;;10.70;99.90;;;;;;5052156;28;20488;-74
2022/12/21 05:15:38;;;;;;;66.28;32.17;;;10.70;99.90;;;;;;5053765;28;20048;-74
2022/12/21 05:18:03;;;;;;;55.50;31.52;;;10.70;99.90;;;;;;5053688;28;20047;-74
2022/12/21 05:20:29;;;;;;;55.75;32.17;;;10.70;99.90;;;;;;5053302;28;20138;-74
2022/12/21 05:22:55;;;;;;;53.92;31.63;;;10.70;99.90;;;;;;5053260;28;20025;-74
2022/12/21 05:25:20;;;;;;;51.08;31.17;;;10.70;99.90;;;;;;5053622;28;20036;-74
2022/12/21 05:27:46;;;;;;;53.72;30.95;;;10.60;99.90;;;;;;5052245;28;20033;-74
2022/12/21 05:30:12;;;;;;;56.30;30.40;;;10.60;99.90;;;;;;5053219;28;20395;-74
2022/12/21 05:32:37;;;;;;;58.35;31.67;;;10.60;99.90;;;;;;5035481;28;20462;-74
2022/12/21 05:35:03;;;;;;;70.93;33.28;;;10.60;99.90;;;;;;5051953;28;20029;-74
2022/12/21 05:37:29;;;;;;;65.55;31.08;;;10.60;99.90;;;;;;5053104;28;20033;-74
2022/12/21 05:39:55;;;;;;;52.83;29.98;;;10.60;99.90;;;;;;5053400;28;20033;-75
2022/12/21 05:42:20;;;;;;;62.47;33.35;;;10.60;99.90;;;;;;5053170;28;20412;-75
2022/12/21 05:44:46;;;;;;;65.63;33.75;;;10.70;99.90;;;;;;5053396;28;20504;-75
2022/12/21 05:47:11;;;;;;;69.88;31.13;;;10.60;99.90;;;;;;5053347;28;20044;-75
2022/12/21 05:49:37;;;;;;;59.00;33.70;;;10.70;99.90;;;;;;5053019;28;20036;-75
2022/12/21 05:52:03;;;;;;;75.60;32.78;;;10.70;99.90;;;;;;5051518;28;20104;-75
2022/12/21 05:54:28;;;;;;;94.70;34.47;;;10.70;99.90;;;;;;5052884;28;20440;-75
2022/12/21 05:56:54;;;;;;;92.45;33.28;;;10.70;99.90;;;;;;5052507;28;20112;-75
2022/12/21 05:59:20;;;;;;;69.32;33.67;;;10.70;99.90;;;;;;5052371;28;20028;-75
2022/12/21 06:01:45;;;;;;;146.68;34.25;;;10.70;99.90;;;;;;5055670;28;20384;-74
2022/12/21 06:04:11;;;;;;;72.85;35.53;;;10.70;99.90;;;;;;5055797;28;20029;-77
2022/12/21 06:06:38;;;;;;;427.15;41.60;;;10.70;99.90;;;;;;5059999;28;20485;-80
2022/12/21 06:09:04;;;;;;;562.75;44.35;;;10.60;99.90;;;;;;5059697;28;20064;-80
2022/12/21 06:11:32;;;;;;;110.63;34.80;;;10.50;99.90;;;;;;5058179;28;20025;-81
2022/12/21 06:13:58;;;;;;;76.70;36.50;;;10.50;99.90;;;;;;5039345;28;20070;-81
2022/12/21 06:16:26;;;;;;;128.23;36.25;;;10.50;99.90;;;;;;5054812;28;20052;-81
2022/12/21 06:18:52;;;;;;;65.38;37.20;;;10.40;99.90;;;;;;5056756;28;20081;-79
2022/12/21 06:21:19;;;;;;;63.45;37.28;;;10.50;99.90;;;;;;5055631;28;20029;-82
2022/12/21 06:23:46;;;;;;;68.15;38.58;;;10.50;99.90;;;;;;5056242;28;20025;-82
2022/12/21 06:26:14;;;;;;;146.40;40.83;;;10.50;99.90;;;;;;5056230;28;20029;-76
2022/12/21 06:28:40;;;;;;;82.38;40.55;;;10.50;99.90;;;;;;5055852;28;20029;-77
2022/12/21 06:31:12;;;;;;;75.85;40.20;;;10.50;99.90;;;;;;5054781;28;20449;-77
2022/12/21 06:33:39;;;;;;;76.68;41.97;;;10.50;99.90;;;;;;5055999;28;20082;-76
2022/12/21 06:36:06;;;;;;;71.55;39.28;;;10.50;99.90;;;;;;5055856;28;20061;-76
2022/12/21 06:38:32;;;;;;;71.57;39.97;;;10.60;99.90;;;;;;5054369;28;20056;-75
2022/12/21 06:41:00;;;;;;;71.35;40.60;;;10.50;99.90;;;;;;5055905;28;20052;-74
2022/12/21 06:43:28;;;;;;;74.55;40.70;;;10.50;99.90;;;;;;5054893;28;20413;-75
2022/12/21 06:45:56;;;;;;;66.30;37.92;;;10.50;99.90;;;;;;5056698;28;20082;-75
2022/12/21 06:48:23;;;;;;;64.18;34.72;;;10.50;99.90;;;;;;5056608;28;20056;-75
2022/12/21 06:51:12;;;;;;;65.18;36.90;;;10.50;99.90;;;;;;5055910;28;20033;-75
2022/12/21 06:53:39;;;;;;;66.10;38.03;;;10.50;99.90;;;;;;5055547;28;20434;-75
2022/12/21 06:56:14;;;;;;;62.38;36.47;;;10.60;99.90;;;;;;5055739;28;20043;-74
2022/12/21 06:58:39;;;;;;;64.70;35.90;;;10.60;99.90;;;;;;5056086;28;20063;-74
2022/12/21 07:01:06;;;;;;;58.90;34.28;;;10.60;99.90;;;;;;5054616;28;20061;-76
2022/12/21 07:03:32;;;;;;;59.53;34.85;;;10.60;99.90;;;;;;5055375;28;20029;-74
2022/12/21 07:05:58;;;;;;;57.83;33.28;;;10.60;99.90;;;;;;5055418;28;20032;-73
2022/12/21 07:08:24;;;;;;;69.00;38.97;;;10.70;99.90;;;;;;5053917;28;20071;-77
2022/12/21 07:10:54;;;;;;;66.50;38.30;;;10.60;99.90;;;;;;5056396;28;20029;-77
2022/12/21 07:13:20;;;;;;;65.53;36.83;;;10.50;99.90;;;;;;5055386;28;20466;-79
2022/12/21 07:15:46;;;;;;;57.22;34.08;;;10.50;99.90;;;;;;5040650;28;20036;-80
2022/12/21 07:18:12;;;;;;;64.72;37.05;;;10.50;99.90;;;;;;5044230;28;20444;-80
2022/12/21 07:20:37;;;;;;;63.10;36.97;;;10.40;99.90;;;;;;5064737;28;20032;-80
2022/12/21 07:23:03;;;;;;;62.55;36.40;;;10.40;99.90;;;;;;5043863;28;20025;-80
2022/12/21 07:25:29;;;;;;;58.47;34.15;;;10.40;99.90;;;;;;5055791;28;20457;-81
2022/12/21 07:27:56;;;;;;;58.08;33.13;;;10.40;99.90;;;;;;5022435;28;20029;-79
2022/12/21 07:30:22;;;;;;;57.30;34.28;;;10.50;99.90;;;;;;5056880;28;20032;-81
2022/12/21 07:32:47;;;;;;;60.58;35.67;;;10.50;99.90;;;;;;5042885;28;20025;-78
2022/12/21 07:35:13;;;;;;;56.80;33.53;;;10.50;99.90;;;;;;5059554;28;20382;-80
2022/12/21 07:37:39;;;;;;;58.30;34.70;;;10.60;99.90;;;;;;5070323;28;20017;-78
2022/12/21 07:40:05;;;;;;;56.88;33.55;;;10.60;99.90;;;;;;5066106;28;20116;-81
2022/12/21 07:42:31;;;;;;;53.08;33.00;;;10.70;99.90;;;;;;5053250;28;20056;-79
2022/12/21 07:44:57;;;;;;;52.92;30.63;;;10.70;99.90;;;;;;5053458;28;20056;-78
2022/12/21 07:47:22;;;;;;;45.50;29.25;;;10.70;99.90;;;;;;5053228;28;20029;-79
2022/12/21 07:49:48;;;;;;;53.75;31.55;;;10.70;99.90;;;;;;5053673;28;20083;-78
2022/12/21 07:52:14;;;;;;;50.05;31.35;;;10.70;99.90;;;;;;5053321;28;20465;-79
2022/12/21 07:54:39;;;;;;;53.78;32.42;;;10.70;99.90;;;;;;5036597;28;20029;-78
2022/12/21 07:57:05;;;;;;;54.30;33.35;;;10.70;99.90;;;;;;5052824;28;20063;-78
2022/12/21 07:59:31;;;;;;;51.78;31.70;;;10.80;99.90;;;;;;5053112;28;20442;-78
2022/12/21 08:01:56;;;;;;;48.78;30.17;;;10.70;99.90;;;;;;5053072;28;20074;-78
2022/12/21 08:04:22;;;;;;;49.58;30.33;;;10.70;99.90;;;;;;5054486;28;20033;-78
2022/12/21 08:06:48;;;;;;;47.28;30.30;;;10.80;99.90;;;;;;5053001;28;20037;-77
2022/12/21 08:09:14;;;;;;;49.97;29.83;;;10.80;99.90;;;;;;5053052;28;20057;-74
2022/12/21 08:11:39;;;;;;;46.08;29.17;;;10.70;99.90;;;;;;5036189;28;20029;-75
2022/12/21 08:14:05;;;;;;;47.63;30.63;;;10.70;99.90;;;;;;5052671;28;20036;-74
2022/12/21 08:16:31;;;;;;;54.80;33.78;;;10.70;99.90;;;;;;5052701;28;20037;-78
2022/12/21 08:18:57;;;;;;;47.92;30.50;;;10.70;99.90;;;;;;5036208;28;20032;-78
2022/12/21 08:21:22;;;;;;;50.63;30.25;;;10.60;99.90;;;;;;5053703;28;20408;-78
2022/12/21 08:23:48;;;;;;;48.95;29.17;;;10.60;99.90;;;;;;5053475;28;20095;-77
2022/12/21 08:26:14;;;;;;;49.28;29.73;;;10.60;99.90;;;;;;5019384;28;20072;-76
2022/12/21 08:28:41;;;;;;;37.40;26.00;;;10.60;99.90;;;;;;5035699;28;20067;-78
2022/12/21 08:31:13;;;;;;;46.47;28.10;;;10.60;99.90;;;;;;5053825;28;20025;-76
2022/12/21 08:33:42;;;;;;;45.90;30.73;;;10.60;99.90;;;;;;5054585;28;20086;-78
2022/12/21 08:36:14;;;;;;;43.33;27.85;;;10.60;99.90;;;;;;5052077;28;20397;-78
2022/12/21 08:38:40;;;;;;;41.38;25.73;;;10.70;99.90;;;;;;5052732;28;20111;-76
2022/12/21 08:41:06;;;;;;;47.35;29.15;;;10.70;99.90;;;;;;5052988;28;20414;-78
2022/12/21 08:43:35;;;;;;;47.40;29.27;;;10.70;99.90;;;;;;5052649;28;20029;-77
2022/12/21 08:46:06;;;;;;;51.00;27.92;;;10.70;99.90;;;;;;5053788;28;20043;-77
2022/12/21 08:48:32;;;;;;;93.80;32.00;;;10.70;99.90;;;;;;5053748;28;20068;-77
2022/12/21 08:50:59;;;;;;;63.85;31.25;;;10.80;99.90;;;;;;5053753;28;20104;-75
2022/12/21 08:53:25;;;;;;;52.58;29.77;;;10.80;99.90;;;;;;5052813;28;20032;-78
2022/12/21 08:55:51;;;;;;;44.30;27.15;;;10.80;99.90;;;;;;5053799;28;20025;-77
2022/12/21 08:58:17;;;;;;;43.85;27.23;;;10.80;99.90;;;;;;5019373;28;20033;-77
2022/12/21 09:00:43;;;;;;;41.10;25.63;;;10.80;99.90;;;;;;5054080;28;20025;-77
2022/12/21 09:03:10;;;;;;;42.67;25.50;;;10.80;99.90;;;;;;5052398;28;20377;-76
2022/12/21 09:05:36;;;;;;;57.92;27.48;;;10.80;99.90;;;;;;5035537;28;20413;-77
2022/12/21 09:08:02;;;;;;;43.95;24.45;;;10.80;99.90;;;;;;5051854;28;20095;-77
2022/12/21 09:10:28;;;;;;;37.28;22.10;;;10.80;99.90;;;;;;5053398;28;20037;-75
2022/12/21 09:12:57;;;;;;;37.35;22.58;;;10.90;99.90;;;;;;5035756;28;20124;-75
2022/12/21 09:15:23;;;;;;;37.15;22.52;;;10.90;99.90;;;;;;5051940;28;20389;-76
2022/12/21 09:17:49;;;;;;;38.25;19.65;;;10.90;99.90;;;;;;5053401;28;20044;-75
2022/12/21 09:20:15;;;;;;;32.67;19.30;;;10.80;99.90;;;;;;5052433;28;20029;-76
2022/12/21 09:22:40;;;;;;;35.15;18.42;;;10.80;99.90;;;;;;5051751;28;20029;-74
2022/12/21 09:25:07;;;;;;;34.53;18.15;;;10.90;99.90;;;;;;5053445;28;20116;-75
2022/12/21 09:27:33;;;;;;;28.45;16.85;;;10.80;99.90;;;;;;5053075;28;20033;-74
2022/12/21 09:29:59;;;;;;;37.30;17.30;;;10.80;99.90;;;;;;5051750;28;20036;-74
2022/12/21 09:32:24;;;;;;;30.77;16.58;;;10.80;99.90;;;;;;5052549;28;20037;-78
2022/12/21 09:34:50;;;;;;;31.33;15.63;;;10.80;99.90;;;;;;5053718;28;20492;-78
2022/12/21 09:37:17;;;;;;;26.35;14.57;;;10.80;99.90;;;;;;5039262;28;20120;-78
2022/12/21 09:39:43;;;;;;;28.08;15.00;;;10.70;99.90;;;;;;5039017;28;20079;-77
2022/12/21 09:42:44;;;;;;;30.88;13.80;;;10.80;99.90;;;;;;5039194;28;20056;-76
2022/12/21 09:45:09;;;;;;;28.70;14.05;;;10.80;99.90;;;;;;5013877;28;20069;-77
2022/12/21 09:47:53;;;;;;;25.63;13.82;;;10.80;99.90;;;;;;5055309;28;20060;-77
2022/12/21 09:50:42;;;;;;;30.77;13.70;;;10.90;99.90;;;;;;5057386;28;20021;-76
2022/12/21 09:53:15;;;;;;;30.17;14.48;;;10.80;99.90;;;;;;5056099;28;20412;-77
2022/12/21 09:55:48;;;;;;;22.77;13.55;;;10.80;99.90;;;;;;5055696;28;20029;-77
2022/12/21 09:58:18;;;;;;;24.10;13.73;;;10.80;99.90;;;;;;5057192;28;20462;-75
2022/12/21 10:00:47;;;;;;;26.55;13.15;;;10.80;99.90;;;;;;5055282;28;20029;-74
2022/12/21 10:03:35;;;;;;;27.38;13.52;;;10.70;99.90;;;;;;5056403;28;20021;-75
2022/12/21 10:06:16;;;;;;;24.75;13.45;;;10.70;99.90;;;;;;5056201;28;20422;-76
2022/12/21 10:09:10;;;;;;;30.58;14.55;;;10.70;99.90;;;;;;5054695;28;20052;-75
2022/12/21 10:11:54;;;;;;;23.10;13.02;;;10.70;99.90;;;;;;5056506;28;20112;-76
2022/12/21 10:14:45;;;;;;;31.80;13.40;;;10.70;99.90;;;;;;5056431;28;20108;-76
2022/12/21 10:17:20;;;;;;;32.28;13.13;;;10.70;99.90;;;;;;5055956;28;20469;-76
2022/12/21 10:20:07;;;;;;;26.50;13.32;;;10.70;99.90;;;;;;5056319;28;20061;-77
2022/12/21 10:22:40;;;;;;;25.40;12.48;;;10.70;99.90;;;;;;5056461;28;20029;-78
2022/12/21 10:25:15;;;;;;;23.83;13.32;;;10.70;99.90;;;;;;5056246;28;20036;-78
2022/12/21 10:28:07;;;;;;;25.83;14.43;;;10.80;99.90;;;;;;5056423;28;20111;-78
2022/12/21 10:30:35;;;;;;;27.20;13.23;;;10.80;99.90;;;;;;5020239;28;20041;-78
2022/12/21 10:33:01;;;;;;;31.15;13.52;;;10.80;99.90;;;;;;5056152;28;20158;-78
2022/12/21 10:35:38;;;;;;;25.67;12.52;;;10.80;99.90;;;;;;5054387;28;20120;-77
2022/12/21 10:38:15;;;;;;;27.17;13.65;;;10.80;99.90;;;;;;5038943;28;20048;-77
2022/12/21 10:40:43;;;;;;;23.90;12.88;;;10.80;99.90;;;;;;5056301;28;20029;-78
2022/12/21 10:43:12;;;;;;;25.80;12.02;;;10.80;99.90;;;;;;5055058;28;20115;-78
2022/12/21 10:45:38;;;;;;;24.30;12.20;;;10.70;99.90;;;;;;5057060;28;20025;-78
2022/12/21 10:48:04;;;;;;;26.63;12.07;;;10.70;99.90;;;;;;5057033;28;20033;-77
2022/12/21 10:50:37;;;;;;;29.13;13.05;;;10.70;99.90;;;;;;5058074;28;20037;-78
2022/12/21 10:53:21;;;;;;;31.20;13.18;;;10.70;99.90;;;;;;5066355;28;20025;-78
2022/12/21 10:55:47;;;;;;;25.98;13.07;;;10.60;99.90;;;;;;5063239;28;20067;-78
2022/12/21 10:58:17;;;;;;;29.00;13.30;;;10.60;99.90;;;;;;5024136;28;20554;-78
2022/12/21 11:00:56;;;;;;;24.73;11.73;;;10.50;99.90;;;;;;5056141;28;20017;-78
2022/12/21 11:03:26;;;;;;;31.80;14.30;;;10.60;99.90;;;;;;5057279;28;20031;-79
2022/12/21 11:05:52;;;;;;;30.38;14.32;;;10.60;99.90;;;;;;5055016;28;20037;-78
2022/12/21 11:08:30;;;;;;;31.17;13.95;;;10.60;99.90;;;;;;5056536;28;20048;-76
2022/12/21 11:11:00;;;;;;;28.92;13.60;;;10.60;99.90;;;;;;5054357;28;20044;-78
2022/12/21 11:13:29;;;;;;;33.50;16.15;;;10.60;99.90;;;;;;5055268;28;20032;-78
2022/12/21 11:16:00;;;;;;;30.83;16.45;;;10.60;99.90;;;;;;5058988;28;20040;-78
2022/12/21 11:18:44;;;;;;;34.33;15.35;;;10.60;99.90;;;;;;5057363;28;20462;-79
2022/12/21 11:21:34;;;;;;;34.45;17.20;;;10.50;99.90;;;;;;5056543;28;20021;-79
2022/12/21 11:24:12;;;;;;;40.03;19.55;;;10.60;99.90;;;;;;5057782;28;20053;-77
2022/12/21 11:26:44;;;;;;;40.42;20.23;;;10.60;99.90;;;;;;5059527;28;20499;-77
2022/12/21 11:29:42;;;;;;;35.20;20.75;;;10.60;99.90;;;;;;5060527;28;20429;-77
2022/12/21 11:32:11;;;;;;;37.60;22.50;;;10.70;99.90;;;;;;5058989;28;20033;-78
2022/12/21 11:34:36;;;;;;;42.53;24.08;;;10.70;99.90;;;;;;5058323;28;20028;-78
2022/12/21 11:37:21;;;;;;;48.13;26.80;;;10.70;99.90;;;;;;5054847;28;20420;-79
2022/12/21 11:39:47;;;;;;;42.58;25.23;;;10.70;99.90;;;;;;5055458;28;20162;-79
2022/12/21 11:42:21;;;;;;;44.13;24.67;;;10.70;99.90;;;;;;5037016;28;20025;-77
2022/12/21 11:44:49;;;;;;;42.75;25.23;;;10.80;99.90;;;;;;5054594;28;20458;-77
2022/12/21 11:47:44;;;;;;;39.83;24.75;;;10.80;99.90;;;;;;5053322;28;20040;-78
2022/12/21 11:50:31;;;;;;;40.15;24.48;;;10.80;99.90;;;;;;5053309;28;20052;-78
2022/12/21 11:53:12;;;;;;;40.97;24.20;;;10.80;99.90;;;;;;5055016;28;20029;-78
2022/12/21 11:56:11;;;;;;;38.35;22.92;;;10.80;99.90;;;;;;5053907;28;20025;-78
2022/12/21 11:58:55;;;;;;;37.28;21.75;;;10.90;99.90;;;;;;5027699;28;20047;-78
2022/12/21 12:01:24;;;;;;;39.78;21.88;;;10.90;99.90;;;;;;5054473;28;20025;-77
2022/12/21 12:04:09;;;;;;;36.13;21.95;;;10.90;99.90;;;;;;5052967;28;20049;-76
2022/12/21 12:06:50;;;;;;;31.38;19.23;;;10.90;99.90;;;;;;5057363;28;20029;-77
2022/12/21 12:09:35;;;;;;;31.52;18.80;;;10.80;99.90;;;;;;5055955;28;20067;-76
2022/12/21 12:12:23;;;;;;;27.55;17.77;;;10.80;99.90;;;;;;5055932;28;20110;-77
2022/12/21 12:15:01;;;;;;;30.10;16.92;;;10.80;99.90;;;;;;5057329;28;20025;-77
2022/12/21 12:17:45;;;;;;;34.60;16.35;;;10.80;99.90;;;;;;5055597;28;20124;-77
2022/12/21 12:20:46;;;;;;;31.10;14.65;;;10.80;99.90;;;;;;5055805;28;20040;-77
2022/12/21 12:23:49;;;;;;;28.08;13.80;;;10.80;99.90;;;;;;5057226;28;20067;-76
2022/12/21 12:26:30;;;;;;;26.17;13.75;;;10.70;99.90;;;;;;5054727;28;20079;-77
2022/12/21 12:29:11;;;;;;;27.60;13.68;;;10.70;99.90;;;;;;5055129;28;20048;-77
2022/12/21 12:31:55;;;;;;;25.88;12.77;;;10.60;99.90;;;;;;5054267;28;20035;-77
2022/12/21 12:34:36;;;;;;;25.38;12.85;;;10.50;99.90;;;;;;5053864;28;20032;-77
2022/12/21 12:37:23;;;;;;;25.48;13.77;;;10.50;99.90;;;;;;5053459;28;20381;-78
2022/12/21 12:39:55;;;;;;;23.67;13.80;;;10.60;99.90;;;;;;5052565;28;20120;-74
2022/12/21 12:42:28;;;;;;;27.35;14.60;;;10.50;99.90;;;;;;5052619;28;20024;-75
2022/12/21 12:45:11;;;;;;;29.13;14.40;;;10.40;99.90;;;;;;5053980;28;20473;-74
2022/12/21 12:47:42;;;;;;;20.45;13.90;;;10.40;99.90;;;;;;5053017;28;20124;-75
2022/12/21 12:50:17;;;;;;;23.35;14.35;;;10.40;99.90;;;;;;5052265;28;20469;-75
2022/12/21 12:52:57;;;;;;;24.70;13.93;;;10.40;99.90;;;;;;5052648;28;20090;-75
2022/12/21 12:55:35;;;;;;;30.65;15.00;;;10.40;99.90;;;;;;5053133;28;20029;-74
2022/12/21 12:58:33;;;;;;;30.55;15.48;;;10.40;99.90;;;;;;5051413;28;20059;-74
2022/12/21 13:01:27;;;;;;;26.20;16.02;;;10.40;99.90;;;;;;5051809;28;20535;-75
2022/12/21 13:04:28;;;;;;;31.08;16.20;;;10.30;99.90;;;;;;5045221;28;20535;-74
2022/12/21 13:07:09;;;;;;;27.92;16.30;;;10.30;99.90;;;;;;5022065;28;20041;-74
2022/12/21 13:10:12;;;;;;;31.83;16.98;;;10.30;99.90;;;;;;5055282;28;20045;-74